Time;durP1;ratioP1;P1;durP2;ratioP2;P2;SDS_P1;SDS_P2;PMS_P1;PMS_P2;Temp;Humidity;BMP_temperature;BMP_pressure;BME280_temperature;BME280_humidity;BME280_pressure;Samples;Min_cycle;Max_cycle;Signal;HPM_P1;HPM_P2
2023/02/21 02:15:46;;;;;;;70.27;54.07;;;;;;;;;;5137389;27;20522;-75
2023/02/21 02:18:23;;;;;;;59.73;49.90;;;;;;;;;;5138089;27;20535;-75
2023/02/21 02:21:12;;;;;;;74.67;53.30;;;;;;;;;;5138175;27;20760;-75
2023/02/21 02:23:53;;;;;;;53.90;45.63;;;;;;;;;;5103614;27;20426;-75
2023/02/21 02:26:41;;;;;;;62.20;52.10;;;;;;;;;;5136729;27;20531;-75
2023/02/21 02:29:24;;;;;;;63.50;48.23;;;;;;;;;;5137851;27;20410;-75
2023/02/21 02:32:00;;;;;;;59.00;48.50;;;;;;;;;;5137015;27;20455;-75
2023/02/21 02:34:42;;;;;;;69.57;56.90;;;;;;;;;;5137946;27;20767;-75
2023/02/21 02:37:17;;;;;;;51.13;44.70;;;;;;;;;;5135051;27;20477;-75
2023/02/21 02:39:46;;;;;;;48.03;42.60;;;;;;;;;;5137771;27;20805;-75
2023/02/21 02:42:19;;;;;;;77.40;54.40;;;;;;;;;;5136504;27;20458;-74
2023/02/21 02:44:50;;;;;;;48.67;43.23;;;;;;;;;;5137105;27;20956;-75
2023/02/21 02:47:21;;;;;;;68.37;52.07;;;;;;;;;;5137520;27;20521;-74
2023/02/21 02:49:48;;;;;;;63.23;47.53;;;;;;;;;;5138037;27;20435;-75
2023/02/21 02:52:17;;;;;;;86.00;59.90;;;;;;;;;;5136597;27;20931;-75
2023/02/21 02:54:44;;;;;;;69.33;52.97;;;;;;;;;;5137179;27;20423;-77
2023/02/21 02:57:12;;;;;;;51.13;43.70;;;;;;;;;;5136573;27;20463;-75
2023/02/21 02:59:41;;;;;;;62.77;49.70;;;;;;;;;;5137147;27;20488;-75
2023/02/21 03:02:21;;;;;;;73.17;54.03;;;;;;;;;;5136805;27;20422;-75
2023/02/21 03:05:04;;;;;;;65.33;49.53;;;;;;;;;;5136521;27;20469;-74
2023/02/21 03:07:38;;;;;;;77.47;54.43;;;;;;;;;;5136146;27;20522;-75
2023/02/21 03:10:11;;;;;;;61.40;49.60;;;;;;;;;;5136016;27;20464;-75
2023/02/21 03:12:44;;;;;;;71.27;53.60;;;;;;;;;;5136667;27;20485;-75
2023/02/21 03:15:14;;;;;;;70.20;52.43;;;;;;;;;;5136893;27;20498;-75
2023/02/21 03:17:43;;;;;;;69.37;53.13;;;;;;;;;;5136720;27;20444;-75
2023/02/21 03:20:11;;;;;;;61.10;51.30;;;;;;;;;;5137112;27;20443;-75
2023/02/21 03:22:40;;;;;;;81.73;54.30;;;;;;;;;;5135986;27;20434;-75
2023/02/21 03:25:08;;;;;;;69.30;55.43;;;;;;;;;;5136784;27;20498;-75
2023/02/21 03:27:36;;;;;;;69.13;52.13;;;;;;;;;;5136795;27;20582;-75
2023/02/21 03:30:04;;;;;;;43.90;39.57;;;;;;;;;;5136669;27;20848;-75
2023/02/21 03:35:00;;;;;;;71.33;52.63;;;;;;;;;;5136208;27;20490;-75
2023/02/21 03:37:31;;;;;;;71.47;56.43;;;;;;;;;;5136859;27;20439;-75
2023/02/21 03:40:00;;;;;;;61.77;47.47;;;;;;;;;;5136633;27;20418;-75
2023/02/21 03:42:27;;;;;;;56.17;46.00;;;;;;;;;;5135040;27;20459;-75
2023/02/21 03:44:54;;;;;;;74.77;56.23;;;;;;;;;;5136036;27;20451;-75
2023/02/21 03:47:22;;;;;;;63.27;49.17;;;;;;;;;;5136508;27;20479;-75
2023/02/21 03:49:49;;;;;;;60.40;51.30;;;;;;;;;;5136398;27;20496;-75
2023/02/21 03:52:16;;;;;;;73.07;52.50;;;;;;;;;;5135601;27;20425;-75
2023/02/21 03:54:43;;;;;;;74.87;53.63;;;;;;;;;;5135987;27;20422;-75
2023/02/21 03:57:11;;;;;;;70.70;55.37;;;;;;;;;;5135145;27;20974;-75
2023/02/21 03:59:38;;;;;;;80.40;59.37;;;;;;;;;;5135814;27;20496;-75
2023/02/21 04:02:05;;;;;;;84.07;56.77;;;;;;;;;;5135769;27;20493;-74
2023/02/21 04:04:32;;;;;;;70.77;52.70;;;;;;;;;;5136012;27;20442;-75
2023/02/21 04:06:59;;;;;;;86.53;61.17;;;;;;;;;;5134819;27;21070;-75
2023/02/21 04:09:26;;;;;;;78.03;56.33;;;;;;;;;;5135780;27;20523;-74
2023/02/21 04:11:53;;;;;;;82.90;52.93;;;;;;;;;;5135087;27;20439;-75
2023/02/21 04:14:21;;;;;;;88.73;59.07;;;;;;;;;;5136110;27;20861;-75
2023/02/21 04:16:48;;;;;;;77.17;54.43;;;;;;;;;;5135196;27;20453;-75
2023/02/21 04:19:15;;;;;;;58.60;47.97;;;;;;;;;;5135733;27;20427;-75
2023/02/21 04:21:42;;;;;;;61.20;49.80;;;;;;;;;;5133863;27;20463;-75
2023/02/21 04:24:09;;;;;;;57.17;47.77;;;;;;;;;;5135525;27;20427;-75
2023/02/21 04:26:36;;;;;;;75.20;55.87;;;;;;;;;;5135106;27;20511;-75
2023/02/21 04:29:03;;;;;;;57.53;45.10;;;;;;;;;;5135502;27;21002;-75
2023/02/21 04:31:32;;;;;;;62.80;53.03;;;;;;;;;;5134222;27;20467;-75
2023/02/21 04:33:59;;;;;;;85.50;53.67;;;;;;;;;;5134817;27;20813;-75
2023/02/21 04:36:26;;;;;;;76.20;53.80;;;;;;;;;;5135197;27;20522;-74
2023/02/21 04:38:53;;;;;;;77.33;56.10;;;;;;;;;;5135102;27;20949;-75
2023/02/21 04:41:20;;;;;;;83.97;58.30;;;;;;;;;;5134064;27;20961;-75
2023/02/21 04:43:47;;;;;;;74.90;57.67;;;;;;;;;;5135539;27;20505;-75
2023/02/21 04:46:15;;;;;;;99.00;59.07;;;;;;;;;;5134677;27;20970;-75
2023/02/21 04:48:44;;;;;;;108.10;73.63;;;;;;;;;;5135540;27;20475;-75
2023/02/21 04:51:11;;;;;;;58.27;48.17;;;;;;;;;;5134898;27;20444;-75
2023/02/21 04:53:38;;;;;;;91.77;63.27;;;;;;;;;;5134901;27;20451;-75
2023/02/21 04:56:06;;;;;;;74.93;52.70;;;;;;;;;;5133799;27;20543;-75
2023/02/21 04:58:33;;;;;;;86.13;63.20;;;;;;;;;;5134615;27;20976;-75
2023/02/21 05:00:59;;;;;;;89.67;64.90;;;;;;;;;;5134806;27;20448;-75
2023/02/21 05:03:26;;;;;;;76.90;53.40;;;;;;;;;;5134280;27;20446;-74
2023/02/21 05:05:55;;;;;;;88.40;61.20;;;;;;;;;;5134350;27;20471;-75
2023/02/21 05:08:22;;;;;;;76.03;51.77;;;;;;;;;;5134300;27;20524;-75
2023/02/21 05:10:50;;;;;;;76.70;57.47;;;;;;;;;;5135166;27;20492;-75
2023/02/21 05:13:17;;;;;;;73.27;50.90;;;;;;;;;;5133758;27;20460;-75
2023/02/21 05:15:44;;;;;;;88.13;58.03;;;;;;;;;;5134444;27;20467;-76
2023/02/21 05:18:11;;;;;;;77.50;55.37;;;;;;;;;;5134831;27;20415;-75
2023/02/21 05:20:38;;;;;;;89.97;56.37;;;;;;;;;;5134059;27;20512;-74
2023/02/21 05:23:06;;;;;;;78.97;55.63;;;;;;;;;;5134286;27;20443;-75
2023/02/21 05:25:33;;;;;;;74.13;51.37;;;;;;;;;;5134362;27;20468;-75
2023/02/21 05:28:00;;;;;;;53.60;43.40;;;;;;;;;;5134512;27;20475;-75
2023/02/21 05:30:27;;;;;;;54.63;44.00;;;;;;;;;;5134442;28;20442;-75
2023/02/21 05:32:54;;;;;;;92.67;59.00;;;;;;;;;;5133420;27;20447;-75
2023/02/21 05:35:21;;;;;;;58.80;44.97;;;;;;;;;;5133912;27;20828;-75
2023/02/21 05:37:48;;;;;;;44.67;39.90;;;;;;;;;;5134781;28;20834;-75
2023/02/21 05:40:17;;;;;;;77.30;53.10;;;;;;;;;;5134412;28;20852;-74
2023/02/21 05:42:44;;;;;;;75.70;53.17;;;;;;;;;;5133984;28;20443;-75
2023/02/21 05:45:11;;;;;;;67.20;44.03;;;;;;;;;;5133757;27;20520;-75
2023/02/21 05:47:38;;;;;;;82.57;53.33;;;;;;;;;;5134466;28;20508;-75
2023/02/21 05:50:06;;;;;;;71.97;52.50;;;;;;;;;;5134686;28;20778;-74
2023/02/21 05:52:33;;;;;;;92.40;56.17;;;;;;;;;;5133970;28;20443;-75
2023/02/21 05:55:00;;;;;;;57.70;45.03;;;;;;;;;;5134090;28;20470;-74
2023/02/21 05:57:28;;;;;;;87.57;54.27;;;;;;;;;;5134317;28;20465;-75
2023/02/21 05:59:55;;;;;;;55.17;44.40;;;;;;;;;;5133791;27;20498;-75
2023/02/21 06:02:22;;;;;;;75.43;51.47;;;;;;;;;;5133495;28;20922;-75
2023/02/21 06:04:49;;;;;;;74.10;50.80;;;;;;;;;;5133941;28;20860;-75
2023/02/21 06:07:17;;;;;;;94.87;58.27;;;;;;;;;;5134386;28;20499;-75
2023/02/21 06:09:44;;;;;;;76.20;48.17;;;;;;;;;;5134282;28;20426;-75
2023/02/21 06:12:11;;;;;;;41.37;37.07;;;;;;;;;;5133147;28;20504;-76
2023/02/21 06:14:39;;;;;;;70.77;48.37;;;;;;;;;;5133903;27;20460;-76
2023/02/21 06:17:06;;;;;;;42.93;38.40;;;;;;;;;;5133619;28;20941;-75
2023/02/21 06:19:33;;;;;;;73.50;49.40;;;;;;;;;;5134131;28;20836;-75
2023/02/21 06:22:00;;;;;;;67.77;48.50;;;;;;;;;;5133732;28;20785;-75
2023/02/21 06:24:27;;;;;;;67.43;43.23;;;;;;;;;;5134202;28;20496;-75
2023/02/21 06:26:54;;;;;;;74.07;55.13;;;;;;;;;;5133152;27;20498;-75
2023/02/21 06:29:21;;;;;;;77.13;50.67;;;;;;;;;;5133796;28;20457;-74
2023/02/21 06:31:49;;;;;;;44.07;39.47;;;;;;;;;;5133103;28;20206;-75
2023/02/21 06:34:16;;;;;;;76.60;50.33;;;;;;;;;;5133825;28;20417;-75
2023/02/21 06:36:43;;;;;;;72.20;50.50;;;;;;;;;;5133145;27;20515;-75
2023/02/21 06:39:11;;;;;;;48.17;43.47;;;;;;;;;;5133629;28;20417;-74
2023/02/21 06:41:38;;;;;;;60.90;46.03;;;;;;;;;;5133319;28;20787;-75
2023/02/21 06:44:05;;;;;;;64.40;48.60;;;;;;;;;;5133707;27;20418;-75
2023/02/21 06:46:34;;;;;;;65.70;48.50;;;;;;;;;;5136239;27;20892;-75
2023/02/21 06:49:02;;;;;;;54.63;42.27;;;;;;;;;;5137327;27;20458;-74
2023/02/21 06:51:29;;;;;;;71.73;48.70;;;;;;;;;;5136497;27;20485;-75
2023/02/21 06:53:56;;;;;;;69.87;51.43;;;;;;;;;;5137338;27;20474;-75
2023/02/21 06:56:23;;;;;;;80.20;53.47;;;;;;;;;;5136562;27;20479;-75
2023/02/21 06:58:50;;;;;;;52.10;44.27;;;;;;;;;;5136830;27;20410;-75
2023/02/21 07:01:17;;;;;;;71.13;52.77;;;;;;;;;;5136637;27;20970;-75
2023/02/21 07:03:45;;;;;;;68.80;46.20;;;;;;;;;;5136955;27;20454;-75
2023/02/21 07:06:13;;;;;;;62.27;46.43;;;;;;;;;;5136629;27;20827;-75
2023/02/21 07:08:40;;;;;;;66.43;47.57;;;;;;;;;;5137229;27;20472;-75
2023/02/21 07:11:08;;;;;;;75.53;52.20;;;;;;;;;;5136750;27;20448;-75
2023/02/21 07:13:35;;;;;;;75.03;51.67;;;;;;;;;;5136110;27;20508;-75
2023/02/21 07:16:02;;;;;;;69.83;49.23;;;;;;;;;;5136495;27;20511;-75
2023/02/21 07:18:29;;;;;;;66.83;47.67;;;;;;;;;;5137010;27;20470;-75
2023/02/21 07:20:56;;;;;;;72.20;49.37;;;;;;;;;;5137421;27;20797;-75
2023/02/21 07:23:24;;;;;;;72.00;49.20;;;;;;;;;;5135627;27;20462;-75
2023/02/21 07:25:51;;;;;;;62.07;44.30;;;;;;;;;;5136442;27;20446;-75
2023/02/21 07:28:18;;;;;;;77.63;53.40;;;;;;;;;;5136539;27;20598;-75
2023/02/21 07:30:45;;;;;;;63.73;49.33;;;;;;;;;;5136809;27;20448;-75
2023/02/21 07:33:12;;;;;;;64.43;48.67;;;;;;;;;;5135044;27;20450;-75
2023/02/21 07:35:39;;;;;;;68.27;51.17;;;;;;;;;;5136142;27;20467;-75
2023/02/21 07:38:06;;;;;;;46.03;39.27;;;;;;;;;;5136720;27;20446;-75
2023/02/21 07:40:35;;;;;;;61.03;44.57;;;;;;;;;;5136246;27;20453;-74
2023/02/21 07:43:02;;;;;;;75.40;53.10;;;;;;;;;;5135826;27;20422;-75
2023/02/21 07:45:29;;;;;;;75.53;53.10;;;;;;;;;;5134516;27;20464;-75
2023/02/21 07:47:56;;;;;;;79.67;53.93;;;;;;;;;;5136249;27;20474;-76
2023/02/21 07:50:23;;;;;;;78.30;53.43;;;;;;;;;;5134832;27;20477;-75
2023/02/21 07:52:50;;;;;;;62.13;46.38;;;;;;;;;;5135961;27;20814;-75
2023/02/21 07:55:17;;;;;;;77.30;53.17;;;;;;;;;;5135291;27;20229;-75
2023/02/21 07:57:45;;;;;;;68.20;49.43;;;;;;;;;;5135840;27;20986;-75
2023/02/21 08:00:13;;;;;;;70.10;50.30;;;;;;;;;;5136153;27;20443;-75
2023/02/21 08:02:40;;;;;;;73.37;51.47;;;;;;;;;;5135314;27;20466;-76
2023/02/21 08:05:07;;;;;;;78.00;55.20;;;;;;;;;;5135094;27;20483;-75
2023/02/21 08:07:34;;;;;;;76.40;57.40;;;;;;;;;;5136027;27;20468;-75
2023/02/21 08:10:01;;;;;;;81.40;53.60;;;;;;;;;;5135405;27;20952;-75
2023/02/21 08:12:28;;;;;;;80.70;55.13;;;;;;;;;;5135222;27;20482;-75
2023/02/21 08:14:56;;;;;;;82.90;54.37;;;;;;;;;;5135912;27;20425;-74
2023/02/21 08:17:23;;;;;;;86.50;53.63;;;;;;;;;;5135982;27;20501;-76
2023/02/21 08:19:50;;;;;;;84.20;54.73;;;;;;;;;;5135372;27;20499;-76
2023/02/21 08:22:17;;;;;;;80.77;51.13;;;;;;;;;;5135111;27;20456;-75
2023/02/21 08:24:45;;;;;;;78.87;52.40;;;;;;;;;;5135658;27;20439;-75
2023/02/21 08:27:11;;;;;;;83.90;55.47;;;;;;;;;;5135749;27;20483;-75
2023/02/21 08:29:39;;;;;;;78.47;52.33;;;;;;;;;;5136483;27;20482;-75
2023/02/21 08:32:07;;;;;;;83.03;56.70;;;;;;;;;;5134384;27;20430;-75
2023/02/21 08:34:34;;;;;;;90.20;57.17;;;;;;;;;;5135208;27;20434;-78
2023/02/21 08:37:05;;;;;;;85.70;56.33;;;;;;;;;;5135632;27;20484;-76
2023/02/21 08:39:32;;;;;;;83.67;53.63;;;;;;;;;;5135390;27;20406;-76
2023/02/21 08:41:59;;;;;;;86.67;55.70;;;;;;;;;;5134797;27;20476;-76
2023/02/21 08:44:26;;;;;;;76.03;51.37;;;;;;;;;;5135653;27;20441;-79
2023/02/21 08:46:53;;;;;;;77.63;54.60;;;;;;;;;;5136663;27;20494;-78
2023/02/21 08:49:21;;;;;;;71.43;48.90;;;;;;;;;;5137254;27;20457;-79
2023/02/21 08:51:48;;;;;;;70.20;50.67;;;;;;;;;;5137762;27;20462;-78
2023/02/21 08:54:15;;;;;;;82.33;54.77;;;;;;;;;;5137920;27;20445;-79
2023/02/21 08:56:42;;;;;;;82.40;55.50;;;;;;;;;;5138535;27;20494;-78
2023/02/21 08:59:09;;;;;;;86.10;53.97;;;;;;;;;;5138693;27;20439;-79
2023/02/21 09:01:36;;;;;;;159.57;91.67;;;;;;;;;;5137229;27;20432;-79
2023/02/21 09:04:04;;;;;;;91.50;56.47;;;;;;;;;;5139434;27;20943;-78
2023/02/21 09:06:32;;;;;;;80.03;52.80;;;;;;;;;;5138581;27;20491;-79
2023/02/21 09:08:59;;;;;;;96.20;54.73;;;;;;;;;;5138977;27;20483;-79
2023/02/21 09:11:26;;;;;;;84.07;54.07;;;;;;;;;;5139471;27;20443;-78
2023/02/21 09:13:54;;;;;;;103.37;59.90;;;;;;;;;;5140598;27;20436;-79
2023/02/21 09:16:21;;;;;;;63.37;49.67;;;;;;;;;;5139743;27;20478;-79
2023/02/21 09:18:54;;;;;;;78.10;56.07;;;;;;;;;;5138304;27;20504;-79
2023/02/21 09:21:21;;;;;;;70.73;52.13;;;;;;;;;;5136845;27;20431;-79
2023/02/21 09:23:52;;;;;;;75.03;52.80;;;;;;;;;;5135520;27;20406;-79
2023/02/21 09:26:20;;;;;;;62.93;48.37;;;;;;;;;;5135073;27;20449;-79
2023/02/21 09:28:47;;;;;;;82.80;53.80;;;;;;;;;;5134992;27;20855;-79
2023/02/21 09:31:14;;;;;;;104.80;62.20;;;;;;;;;;5135465;28;20447;-79
2023/02/21 09:33:41;;;;;;;74.90;55.37;;;;;;;;;;5135425;28;20504;-79
2023/02/21 09:36:09;;;;;;;97.73;69.07;;;;;;;;;;5135095;28;20521;-78
2023/02/21 09:38:36;;;;;;;103.20;70.50;;;;;;;;;;5136478;28;20443;-78
2023/02/21 09:41:06;;;;;;;65.57;50.67;;;;;;;;;;5134842;27;20436;-79
2023/02/21 09:43:35;;;;;;;89.80;57.37;;;;;;;;;;5135560;28;20439;-79
2023/02/21 09:46:03;;;;;;;69.33;51.97;;;;;;;;;;5135336;28;20494;-79
2023/02/21 09:48:31;;;;;;;75.17;53.53;;;;;;;;;;5134932;28;20417;-78
2023/02/21 09:50:59;;;;;;;70.77;53.73;;;;;;;;;;5135351;28;20474;-78
2023/02/21 09:53:27;;;;;;;69.33;51.63;;;;;;;;;;5134903;28;20430;-78
2023/02/21 09:55:55;;;;;;;66.23;48.10;;;;;;;;;;5137384;28;20446;-79
2023/02/21 09:58:24;;;;;;;98.97;57.90;;;;;;;;;;5135387;28;20440;-78
2023/02/21 10:00:51;;;;;;;88.03;53.33;;;;;;;;;;5135529;28;20425;-78
2023/02/21 10:03:33;;;;;;;99.23;57.50;;;;;;;;;;5134953;28;20886;-78
2023/02/21 10:06:04;;;;;;;78.93;54.33;;;;;;;;;;5134952;28;20819;-79
2023/02/21 10:08:37;;;;;;;79.60;56.10;;;;;;;;;;5134232;27;20467;-79
2023/02/21 10:11:07;;;;;;;82.27;56.03;;;;;;;;;;5135254;28;20490;-79
2023/02/21 10:13:40;;;;;;;79.27;56.00;;;;;;;;;;5134621;27;20519;-78
2023/02/21 10:16:09;;;;;;;81.10;54.67;;;;;;;;;;5136731;28;20438;-79
2023/02/21 10:18:40;;;;;;;73.70;51.00;;;;;;;;;;5138563;27;20473;-80
2023/02/21 10:21:12;;;;;;;65.07;50.90;;;;;;;;;;5142891;27;20842;-78
2023/02/21 10:23:41;;;;;;;83.43;55.70;;;;;;;;;;5142141;27;20780;-78
2023/02/21 10:26:10;;;;;;;86.10;58.63;;;;;;;;;;5141677;27;20474;-78
2023/02/21 10:28:38;;;;;;;104.50;67.53;;;;;;;;;;5141467;27;20442;-79
2023/02/21 10:31:08;;;;;;;97.23;63.43;;;;;;;;;;5141435;27;20575;-79
2023/02/21 10:33:37;;;;;;;108.97;68.73;;;;;;;;;;5138640;27;20447;-78
2023/02/21 10:36:13;;;;;;;96.30;60.80;;;;;;;;;;5141395;27;20462;-79
2023/02/21 10:38:42;;;;;;;75.67;53.03;;;;;;;;;;5140855;27;20472;-79
2023/02/21 10:41:10;;;;;;;74.07;51.90;;;;;;;;;;5140640;27;20495;-79
2023/02/21 10:43:40;;;;;;;90.83;56.10;;;;;;;;;;5139871;27;20422;-78
2023/02/21 10:46:11;;;;;;;86.40;54.10;;;;;;;;;;5141097;27;20446;-79
2023/02/21 10:48:38;;;;;;;82.60;52.40;;;;;;;;;;5140488;27;20427;-78
2023/02/21 10:51:07;;;;;;;79.10;51.60;;;;;;;;;;5138506;27;20447;-78
2023/02/21 10:53:35;;;;;;;60.70;46.77;;;;;;;;;;5137426;27;20969;-78
2023/02/21 10:56:09;;;;;;;77.93;51.30;;;;;;;;;;5138248;27;20493;-78
2023/02/21 10:58:38;;;;;;;83.20;53.37;;;;;;;;;;5138087;27;20448;-78
2023/02/21 11:01:13;;;;;;;79.07;49.10;;;;;;;;;;5137610;27;20443;-78
2023/02/21 11:03:44;;;;;;;88.53;55.53;;;;;;;;;;5137182;27;20927;-78
2023/02/21 11:06:21;;;;;;;73.90;49.93;;;;;;;;;;5137636;27;20471;-78
2023/02/21 11:08:48;;;;;;;72.10;47.70;;;;;;;;;;5138062;27;20895;-78
2023/02/21 11:11:15;;;;;;;82.13;50.57;;;;;;;;;;5138083;27;20451;-79
2023/02/21 11:13:44;;;;;;;79.33;52.83;;;;;;;;;;5139494;27;20460;-78
2023/02/21 11:16:12;;;;;;;87.80;51.10;;;;;;;;;;5139340;27;20482;-79
2023/02/21 11:18:39;;;;;;;87.83;53.97;;;;;;;;;;5138657;27;20479;-79
2023/02/21 11:21:12;;;;;;;66.10;45.70;;;;;;;;;;5139288;27;20414;-78
2023/02/21 11:23:45;;;;;;;63.33;48.53;;;;;;;;;;5139772;27;20482;-77
2023/02/21 11:26:13;;;;;;;70.70;49.00;;;;;;;;;;5138772;27;20858;-78
2023/02/21 11:28:42;;;;;;;81.90;53.83;;;;;;;;;;5138287;27;20500;-77
2023/02/21 11:31:14;;;;;;;71.07;46.43;;;;;;;;;;5136477;27;20876;-77
2023/02/21 11:33:42;;;;;;;73.47;49.50;;;;;;;;;;5136329;27;21028;-78
2023/02/21 11:36:13;;;;;;;70.17;50.63;;;;;;;;;;5136871;27;20972;-78
2023/02/21 11:38:42;;;;;;;75.23;46.90;;;;;;;;;;5137063;27;20523;-77
2023/02/21 11:41:16;;;;;;;80.47;49.80;;;;;;;;;;5136451;27;20440;-78
2023/02/21 11:43:46;;;;;;;78.10;49.73;;;;;;;;;;5137459;27;20406;-78
2023/02/21 11:46:28;;;;;;;74.47;47.10;;;;;;;;;;5135954;27;20489;-77
2023/02/21 11:48:59;;;;;;;88.83;56.20;;;;;;;;;;5136817;27;20410;-77
2023/02/21 11:51:29;;;;;;;81.13;50.70;;;;;;;;;;5135968;27;20435;-78
2023/02/21 11:53:57;;;;;;;56.23;41.10;;;;;;;;;;5136920;27;20835;-79
2023/02/21 11:56:28;;;;;;;60.77;44.87;;;;;;;;;;5136440;27;20462;-78
2023/02/21 11:58:58;;;;;;;62.23;43.57;;;;;;;;;;5136048;27;20494;-78
2023/02/21 12:01:29;;;;;;;69.77;43.00;;;;;;;;;;5136309;27;20401;-78
2023/02/21 12:04:03;;;;;;;65.33;46.93;;;;;;;;;;5136345;27;20450;-78
2023/02/21 12:06:33;;;;;;;78.67;47.90;;;;;;;;;;5136865;27;20826;-79
2023/02/21 12:09:02;;;;;;;78.53;48.50;;;;;;;;;;5136281;27;20927;-78
2023/02/21 12:11:47;;;;;;;76.93;50.03;;;;;;;;;;5135747;27;20945;-79
2023/02/21 12:14:20;;;;;;;77.30;47.57;;;;;;;;;;5136622;27;20452;-78
2023/02/21 12:16:55;;;;;;;63.87;43.43;;;;;;;;;;5136344;27;20465;-78
2023/02/21 12:19:40;;;;;;;55.00;43.03;;;;;;;;;;5136212;27;20427;-78
2023/02/21 12:22:13;;;;;;;59.73;44.67;;;;;;;;;;5135566;27;20479;-78
2023/02/21 12:24:45;;;;;;;63.03;44.63;;;;;;;;;;5135891;27;20488;-78
2023/02/21 12:27:16;;;;;;;64.03;43.73;;;;;;;;;;5135804;27;20451;-79
2023/02/21 12:29:48;;;;;;;76.37;46.40;;;;;;;;;;5136011;27;20468;-78
2023/02/21 12:32:34;;;;;;;49.53;41.50;;;;;;;;;;5135550;27;20456;-78
2023/02/21 12:35:13;;;;;;;55.70;41.30;;;;;;;;;;5135597;27;20966;-79
2023/02/21 12:37:43;;;;;;;56.40;42.30;;;;;;;;;;5135862;27;20402;-78
2023/02/21 12:40:16;;;;;;;62.37;43.07;;;;;;;;;;5135869;27;20495;-78
2023/02/21 12:42:50;;;;;;;57.77;41.00;;;;;;;;;;5134202;27;20412;-78
2023/02/21 12:45:25;;;;;;;64.17;43.67;;;;;;;;;;5135768;27;20466;-79
2023/02/21 12:47:56;;;;;;;56.90;43.07;;;;;;;;;;5135589;27;20462;-78
2023/02/21 12:50:25;;;;;;;55.33;40.10;;;;;;;;;;5135414;27;20513;-78
2023/02/21 12:53:01;;;;;;;48.77;37.07;;;;;;;;;;5134833;27;20973;-78
2023/02/21 12:55:32;;;;;;;51.53;41.20;;;;;;;;;;5136674;27;20525;-81
2023/02/21 12:58:02;;;;;;;59.23;40.23;;;;;;;;;;5136398;27;20434;-78
2023/02/21 13:00:33;;;;;;;48.27;37.37;;;;;;;;;;5135578;27;20439;-78
2023/02/21 13:03:04;;;;;;;55.20;40.27;;;;;;;;;;5134222;27;20428;-79
2023/02/21 13:05:38;;;;;;;58.10;41.87;;;;;;;;;;5135214;27;20512;-78
2023/02/21 13:08:06;;;;;;;59.50;40.57;;;;;;;;;;5134129;27;20498;-78
2023/02/21 13:10:35;;;;;;;53.53;39.50;;;;;;;;;;5135084;27;20542;-78
2023/02/21 13:13:07;;;;;;;55.97;41.97;;;;;;;;;;5134209;27;20933;-78
2023/02/21 13:15:35;;;;;;;50.20;40.10;;;;;;;;;;5135052;27;20840;-78
2023/02/21 13:18:06;;;;;;;52.50;39.40;;;;;;;;;;5134833;27;21179;-78
2023/02/21 13:20:35;;;;;;;41.93;34.77;;;;;;;;;;5135015;27;20400;-78
2023/02/21 13:25:54;;;;;;;49.37;39.77;;;;;;;;;;5134714;27;20460;-77
2023/02/21 13:28:22;;;;;;;48.87;37.03;;;;;;;;;;5134835;27;20439;-77
2023/02/21 13:30:51;;;;;;;48.60;36.83;;;;;;;;;;5134914;27;20487;-78
2023/02/21 13:33:27;;;;;;;48.47;35.77;;;;;;;;;;5134234;27;20417;-78
2023/02/21 13:35:56;;;;;;;48.40;36.30;;;;;;;;;;5134602;28;20430;-78
2023/02/21 13:38:23;;;;;;;42.23;33.83;;;;;;;;;;5134747;28;20471;-78
2023/02/21 13:40:53;;;;;;;46.83;37.40;;;;;;;;;;5134735;28;20435;-78
2023/02/21 13:43:23;;;;;;;48.23;37.63;;;;;;;;;;5133984;28;20886;-78
2023/02/21 13:45:52;;;;;;;51.60;40.77;;;;;;;;;;5134300;28;20945;-78
2023/02/21 13:48:20;;;;;;;46.60;38.97;;;;;;;;;;5134580;28;20923;-77
2023/02/21 13:50:50;;;;;;;47.63;38.93;;;;;;;;;;5134615;28;20446;-77
2023/02/21 13:53:18;;;;;;;51.23;38.60;;;;;;;;;;5133929;27;20447;-78
2023/02/21 13:56:19;;;;;;;56.47;38.33;;;;;;;;;;5139044;27;20467;-78
2023/02/21 13:58:46;;;;;;;54.97;40.40;;;;;;;;;;5055228;28;20426;-77
2023/02/21 14:01:32;;;;;;;64.93;41.27;;;;;;;;;;5055313;28;20458;-79
2023/02/21 14:03:59;;;;;;;67.23;46.17;;;;;;;;;;5103503;27;20444;-77
2023/02/21 14:06:32;;;;;;;67.63;44.40;;;;;;;;;;5138511;27;20855;-79
2023/02/21 14:09:01;;;;;;;69.73;48.27;;;;;;;;;;5138596;27;20756;-78
2023/02/21 14:11:30;;;;;;;67.63;49.07;;;;;;;;;;5137924;27;20514;-78
2023/02/21 14:13:59;;;;;;;78.67;51.53;;;;;;;;;;5138437;27;20438;-77
2023/02/21 14:16:27;;;;;;;74.17;51.00;;;;;;;;;;5138505;27;20442;-78
2023/02/21 14:18:56;;;;;;;80.10;51.47;;;;;;;;;;5138489;27;20415;-78
2023/02/21 14:21:25;;;;;;;62.70;46.70;;;;;;;;;;5137318;27;20992;-79
2023/02/21 14:24:01;;;;;;;72.03;46.53;;;;;;;;;;5138440;27;20414;-78
2023/02/21 14:26:40;;;;;;;57.00;41.77;;;;;;;;;;5138282;27;20518;-78
2023/02/21 14:29:28;;;;;;;73.73;45.63;;;;;;;;;;5137922;27;20894;-78
2023/02/21 14:31:57;;;;;;;62.03;42.30;;;;;;;;;;5137470;27;20466;-78
2023/02/21 14:34:27;;;;;;;58.73;42.80;;;;;;;;;;5138046;27;20447;-78
2023/02/21 14:36:57;;;;;;;58.60;40.77;;;;;;;;;;5137850;27;20954;-78
2023/02/21 14:39:31;;;;;;;59.73;42.47;;;;;;;;;;5137924;27;20431;-78
2023/02/21 14:42:05;;;;;;;59.57;43.37;;;;;;;;;;5137867;27;20393;-78
2023/02/21 14:44:36;;;;;;;57.20;40.87;;;;;;;;;;5138149;27;20406;-78
2023/02/21 14:47:16;;;;;;;58.37;40.17;;;;;;;;;;5138163;27;20492;-78
2023/02/21 14:49:53;;;;;;;62.10;44.20;;;;;;;;;;5138104;27;20435;-78
2023/02/21 14:52:29;;;;;;;57.27;41.47;;;;;;;;;;5137427;27;20424;-77
2023/02/21 14:55:10;;;;;;;65.70;42.30;;;;;;;;;;5138196;27;20834;-78
2023/02/21 14:57:43;;;;;;;59.23;43.90;;;;;;;;;;5137749;27;20464;-78
2023/02/21 15:00:17;;;;;;;60.30;42.97;;;;;;;;;;5136950;27;20515;-78
2023/02/21 15:02:49;;;;;;;74.97;44.60;;;;;;;;;;5137034;27;20929;-78
2023/02/21 15:05:18;;;;;;;70.20;42.90;;;;;;;;;;5136502;27;20450;-79
2023/02/21 15:07:52;;;;;;;60.50;43.43;;;;;;;;;;5137098;27;20942;-79
2023/02/21 15:10:22;;;;;;;70.80;45.30;;;;;;;;;;5137818;27;20493;-79
2023/02/21 15:12:50;;;;;;;69.17;47.53;;;;;;;;;;5137269;27;20446;-78
2023/02/21 15:15:20;;;;;;;65.47;44.53;;;;;;;;;;5137317;27;20482;-78
2023/02/21 15:17:56;;;;;;;66.10;44.97;;;;;;;;;;5137247;27;20392;-78
2023/02/21 15:20:23;;;;;;;65.63;44.20;;;;;;;;;;5137811;27;20494;-78
2023/02/21 15:22:56;;;;;;;61.20;43.10;;;;;;;;;;5136731;27;20448;-78
2023/02/21 15:25:24;;;;;;;60.97;43.80;;;;;;;;;;5137085;27;20990;-78
2023/02/21 15:27:59;;;;;;;64.30;44.27;;;;;;;;;;5137217;27;20967;-78
2023/02/21 15:30:27;;;;;;;55.57;41.90;;;;;;;;;;5137040;27;20441;-78
2023/02/21 15:32:56;;;;;;;64.67;44.00;;;;;;;;;;5136793;27;20496;-78
2023/02/21 15:35:25;;;;;;;64.67;43.77;;;;;;;;;;5136509;27;20503;-78
2023/02/21 15:37:52;;;;;;;69.97;47.07;;;;;;;;;;5136834;27;20423;-78
2023/02/21 15:40:21;;;;;;;67.20;43.70;;;;;;;;;;5137197;27;20403;-78
2023/02/21 15:42:50;;;;;;;60.70;45.43;;;;;;;;;;5136398;27;20439;-78
2023/02/21 15:45:19;;;;;;;62.40;43.33;;;;;;;;;;5136813;27;20867;-78
2023/02/21 15:47:46;;;;;;;62.23;44.10;;;;;;;;;;5136938;27;20885;-79
2023/02/21 15:50:16;;;;;;;60.07;42.83;;;;;;;;;;5136975;27;20449;-78
2023/02/21 15:52:47;;;;;;;56.93;43.47;;;;;;;;;;5136056;27;20883;-78
2023/02/21 15:55:16;;;;;;;67.40;46.90;;;;;;;;;;5136602;27;20480;-78
2023/02/21 15:57:43;;;;;;;60.23;42.67;;;;;;;;;;5137317;27;20492;-78
2023/02/21 16:00:25;;;;;;;59.70;41.47;;;;;;;;;;5136991;27;20457;-78
2023/02/21 16:02:52;;;;;;;56.63;42.60;;;;;;;;;;5136163;27;20464;-78
2023/02/21 16:05:25;;;;;;;57.40;42.57;;;;;;;;;;5136568;27;20483;-78
2023/02/21 16:07:53;;;;;;;52.07;40.37;;;;;;;;;;5136780;27;20987;-78
2023/02/21 16:10:22;;;;;;;50.80;40.40;;;;;;;;;;5136705;27;20439;-78
2023/02/21 16:12:55;;;;;;;52.20;42.37;;;;;;;;;;5136157;27;20496;-78
2023/02/21 16:15:25;;;;;;;58.13;41.83;;;;;;;;;;5137029;27;20840;-79
2023/02/21 16:17:53;;;;;;;55.50;41.70;;;;;;;;;;5115611;28;20452;-78
2023/02/21 16:20:23;;;;;;;52.80;39.10;;;;;;;;;;5115999;28;20788;-78
2023/02/21 16:22:52;;;;;;;55.43;40.03;;;;;;;;;;5115133;28;20479;-79
2023/02/21 16:25:21;;;;;;;61.90;42.90;;;;;;;;;;5121010;28;20934;-87
2023/02/21 16:27:51;;;;;;;51.90;41.10;;;;;;;;;;5118312;27;20476;-88
2023/02/21 16:30:18;;;;;;;57.63;42.20;;;;;;;;;;5139402;27;20456;-87
2023/02/21 16:32:48;;;;;;;52.77;43.47;;;;;;;;;;5138347;27;20496;-88
2023/02/21 16:35:16;;;;;;;56.83;43.10;;;;;;;;;;5140072;27;20496;-86
2023/02/21 16:37:43;;;;;;;53.73;42.63;;;;;;;;;;5141003;27;20455;-87
2023/02/21 16:40:14;;;;;;;62.40;43.97;;;;;;;;;;5139887;27;20482;-87
2023/02/21 16:42:41;;;;;;;56.83;41.63;;;;;;;;;;5139441;27;20505;-88
2023/02/21 16:45:08;;;;;;;55.00;43.43;;;;;;;;;;5151497;27;20459;-88
2023/02/21 16:47:35;;;;;;;60.50;43.73;;;;;;;;;;5156539;27;20455;-90
2023/02/21 16:50:04;;;;;;;65.53;45.13;;;;;;;;;;5157440;27;20414;-90